Time;durP1;ratioP1;P1;durP2;ratioP2;P2;SDS_P1;SDS_P2;PMS_P1;PMS_P2;Temp;Humidity;BMP_temperature;BMP_pressure;BME280_temperature;BME280_humidity;BME280_pressure;Samples;Min_cycle;Max_cycle;Signal;HPM_P1;HPM_P2
2022/12/14 00:00:57;;;;;;;;;;;;;;;-0.09;100.00;96851.66;5069758;28;19960;-59
2022/12/14 00:03:23;;;;;;;;;;;;;;;-0.08;100.00;96840.13;5069482;28;19960;-59
2022/12/14 00:05:50;;;;;;;;;;;;;;;-0.21;100.00;96821.94;5069480;28;19984;-60
2022/12/14 00:08:17;;;;;;;;;;;;;;;-0.31;100.00;96815.63;5069583;28;19988;-59
2022/12/14 00:10:44;;;;;;;;;;;;;;;-0.72;100.00;96816.31;5069317;28;20019;-59
2022/12/14 00:13:13;;;;;;;;;;;;;;;-0.61;100.00;96828.66;5069427;28;20000;-59
2022/12/14 00:15:40;;;;;;;;;;;;;;;-0.96;100.00;96820.56;5061532;28;19925;-59
2022/12/14 00:18:06;;;;;;;;;;;;;;;-0.66;100.00;96813.59;5069338;28;19960;-59
2022/12/14 00:20:33;;;;;;;;;;;;;;;-0.24;100.00;96825.00;5069185;28;19940;-59
2022/12/14 00:23:00;;;;;;;;;;;;;;;-0.06;100.00;96830.22;5067815;28;19976;-59
2022/12/14 00:25:27;;;;;;;;;;;;;;;0.20;100.00;96820.38;5069171;28;19967;-60
2022/12/14 00:27:54;;;;;;;;;;;;;;;0.09;100.00;96806.22;5068957;28;20025;-61
2022/12/14 00:30:20;;;;;;;;;;;;;;;-0.35;100.00;96809.22;5069110;28;20434;-59
2022/12/14 00:32:47;;;;;;;;;;;;;;;-0.77;100.00;96800.41;5069024;28;19936;-60
2022/12/14 00:35:16;;;;;;;;;;;;;;;-1.04;100.00;96786.78;5069281;28;19971;-59
2022/12/14 00:37:42;;;;;;;;;;;;;;;-0.94;100.00;96788.91;5069446;28;19997;-59
2022/12/14 00:40:09;;;;;;;;;;;;;;;-0.98;100.00;96793.78;5069256;28;19964;-59
2022/12/14 00:42:37;;;;;;;;;;;;;;;-0.94;100.00;96807.25;5069125;28;19935;-60
2022/12/14 00:45:03;;;;;;;;;;;;;;;-0.71;100.00;96805.59;5069305;28;19983;-60
2022/12/14 00:47:30;;;;;;;;;;;;;;;-0.46;100.00;96825.69;5073265;28;19921;-59
2022/12/14 00:49:56;;;;;;;;;;;;;;;-0.30;100.00;96843.44;5073155;28;20016;-58
2022/12/14 00:52:23;;;;;;;;;;;;;;;-0.02;100.00;96834.00;5071627;28;19989;-61
2022/12/14 00:54:49;;;;;;;;;;;;;;;-0.55;100.00;96831.22;5072959;28;19996;-60
2022/12/14 00:57:15;;;;;;;;;;;;;;;-0.53;100.00;96830.22;5072963;28;19983;-60
2022/12/14 00:59:43;;;;;;;;;;;;;;;-0.71;100.00;96825.75;5072585;28;19925;-59
2022/12/14 01:02:09;;;;;;;;;;;;;;;-0.88;100.00;96824.72;5072741;28;19925;-58
2022/12/14 01:04:36;;;;;;;;;;;;;;;-0.56;100.00;96831.47;5072626;28;20010;-59
2022/12/14 01:07:02;;;;;;;;;;;;;;;-0.54;100.00;96829.41;5072711;28;19992;-59
2022/12/14 01:09:28;;;;;;;;;;;;;;;-0.25;100.00;96826.00;5073336;28;19996;-59
2022/12/14 01:11:55;;;;;;;;;;;;;;;-0.32;100.00;96838.44;5073357;28;19925;-59
2022/12/14 01:14:21;;;;;;;;;;;;;;;-0.37;100.00;96840.88;5073684;28;20378;-60
2022/12/14 01:16:49;;;;;;;;;;;;;;;-0.44;100.00;96842.81;5072422;28;19987;-60
2022/12/14 01:19:15;;;;;;;;;;;;;;;-0.06;100.00;96850.41;5072384;28;19951;-59
2022/12/14 01:21:42;;;;;;;;;;;;;;;0.11;100.00;96842.72;5072666;28;19925;-59
2022/12/14 01:24:09;;;;;;;;;;;;;;;0.19;100.00;96848.44;5070862;28;19980;-59
2022/12/14 01:26:36;;;;;;;;;;;;;;;0.28;100.00;96854.22;5072428;28;19935;-59
2022/12/14 01:29:03;;;;;;;;;;;;;;;0.33;100.00;96844.63;5072523;28;19964;-61
2022/12/14 01:31:31;;;;;;;;;;;;;;;0.40;100.00;96836.66;5072250;28;19992;-60
2022/12/14 01:33:59;;;;;;;;;;;;;;;0.43;100.00;96826.47;5072374;28;19976;-61
2022/12/14 01:36:26;;;;;;;;;;;;;;;0.29;98.70;96806.72;5054378;28;19960;-60
2022/12/14 01:38:53;;;;;;;;;;;;;;;0.06;100.00;96792.72;5072145;28;19963;-59
2022/12/14 01:41:22;;;;;;;;;;;;;;;-0.08;100.00;96807.84;5072334;28;20019;-59
2022/12/14 01:43:50;;;;;;;;;;;;;;;-0.56;100.00;96803.38;5072064;28;19955;-60
2022/12/14 01:46:18;;;;;;;;;;;;;;;-1.08;100.00;96799.50;5072458;28;20019;-59
2022/12/14 01:48:45;;;;;;;;;;;;;;;-1.31;100.00;96794.09;5072242;28;19932;-59
2022/12/14 01:51:13;;;;;;;;;;;;;;;-0.85;100.00;96800.72;5072167;28;19932;-60
2022/12/14 01:53:39;;;;;;;;;;;;;;;-0.95;100.00;96810.88;5063636;28;19996;-58
2022/12/14 01:56:06;;;;;;;;;;;;;;;-1.18;100.00;96788.72;5071602;28;20309;-59
2022/12/14 01:58:32;;;;;;;;;;;;;;;-1.49;100.00;96788.03;5070940;28;19964;-60
2022/12/14 02:00:59;;;;;;;;;;;;;;;-1.10;100.00;96793.69;5071657;28;19925;-59
2022/12/14 02:03:28;;;;;;;;;;;;;;;-0.96;100.00;96796.19;5071887;28;19996;-58
2022/12/14 02:05:56;;;;;;;;;;;;;;;-0.83;100.00;96783.75;5071547;28;19936;-59
2022/12/14 02:08:25;;;;;;;;;;;;;;;-1.23;100.00;96780.72;5071633;28;19929;-60
2022/12/14 02:10:53;;;;;;;;;;;;;;;-1.02;100.00;96786.59;5071746;28;19925;-60
2022/12/14 02:13:22;;;;;;;;;;;;;;;-0.41;100.00;96776.81;5071553;28;19992;-59
2022/12/14 02:15:49;;;;;;;;;;;;;;;-0.19;100.00;96775.31;5071534;28;19952;-59
2022/12/14 02:18:18;;;;;;;;;;;;;;;-0.06;100.00;96775.09;5071342;28;19948;-59
2022/12/14 02:20:53;;;;;;;;;;;;;;;-0.21;100.00;96760.78;5071455;28;19999;-59
2022/12/14 02:23:30;;;;;;;;;;;;;;;-0.17;100.00;96759.31;5069576;28;19977;-60
2022/12/14 02:26:15;;;;;;;;;;;;;;;-0.36;100.00;96758.56;5071344;28;19992;-58
2022/12/14 02:28:57;;;;;;;;;;;;;;;-0.66;100.00;96744.66;5063776;28;19935;-59
2022/12/14 02:31:30;;;;;;;;;;;;;;;-0.49;100.00;96748.25;5068806;28;19925;-59
2022/12/14 02:34:00;;;;;;;;;;;;;;;-0.82;100.00;96760.97;5071021;28;19925;-59
2022/12/14 02:36:31;;;;;;;;;;;;;;;-0.79;100.00;96757.91;5053135;28;19952;-58
2022/12/14 02:39:02;;;;;;;;;;;;;;;-0.88;100.00;96746.91;5071144;28;20008;-58
2022/12/14 02:41:37;;;;;;;;;;;;;;;-0.56;100.00;96750.94;5070873;28;19992;-59
2022/12/14 02:44:09;;;;;;;;;;;;;;;-0.51;100.00;96755.53;5070968;28;19927;-58
2022/12/14 02:46:40;;;;;;;;;;;;;;;-0.60;100.00;96757.69;5071023;28;20016;-60
2022/12/14 02:49:10;;;;;;;;;;;;;;;-0.79;100.00;96768.38;5070805;28;19925;-59
2022/12/14 02:51:42;;;;;;;;;;;;;;;-0.90;100.00;96771.75;5070661;28;19976;-59
2022/12/14 02:54:12;;;;;;;;;;;;;;;-1.49;100.00;96786.22;5069357;28;19992;-58
2022/12/14 02:56:41;;;;;;;;;;;;;;;-1.58;100.00;96777.03;5062372;28;19948;-59
2022/12/14 02:59:08;;;;;;;;;;;;;;;-1.80;100.00;96783.63;5070513;28;19964;-59
2022/12/14 03:01:36;;;;;;;;;;;;;;;-1.79;100.00;96772.94;5070993;28;19931;-59
2022/12/14 03:04:04;;;;;;;;;;;;;;;-1.31;100.00;96770.53;5071057;28;20012;-59
2022/12/14 03:06:30;;;;;;;;;;;;;;;-1.32;100.00;96771.53;5070932;28;20551;-59
2022/12/14 03:08:58;;;;;;;;;;;;;;;-1.72;100.00;96765.03;5052519;28;19968;-59
2022/12/14 03:11:29;;;;;;;;;;;;;;;-1.96;100.00;96758.78;5070542;28;19948;-60
2022/12/14 03:13:56;;;;;;;;;;;;;;;-2.13;100.00;96756.88;5070515;28;20036;-59
2022/12/14 03:16:25;;;;;;;;;;;;;;;-1.75;100.00;96731.44;5070173;28;19935;-58
2022/12/14 03:18:54;;;;;;;;;;;;;;;-1.67;100.00;96728.56;5070138;28;19960;-59
2022/12/14 03:21:24;;;;;;;;;;;;;;;-1.54;100.00;96730.25;5070199;28;19928;-58
2022/12/14 03:23:51;;;;;;;;;;;;;;;-1.50;100.00;96736.66;5068740;28;19948;-59
2022/12/14 03:26:21;;;;;;;;;;;;;;;-1.45;100.00;96728.97;5070347;28;19932;-61
2022/12/14 03:28:49;;;;;;;;;;;;;;;-1.42;100.00;96728.53;5070195;28;19977;-59
2022/12/14 03:31:20;;;;;;;;;;;;;;;-0.98;100.00;96722.22;5070144;28;19992;-60
2022/12/14 03:33:48;;;;;;;;;;;;;;;-1.13;100.00;96714.75;5069982;28;19936;-59
2022/12/14 03:36:17;;;;;;;;;;;;;;;-0.97;100.00;96721.22;5069830;28;20091;-59
2022/12/14 03:38:48;;;;;;;;;;;;;;;-0.62;100.00;96715.13;5069749;28;19984;-58
2022/12/14 03:41:19;;;;;;;;;;;;;;;-0.83;100.00;96688.59;5069743;28;19971;-58
2022/12/14 03:43:52;;;;;;;;;;;;;;;-1.21;100.00;96686.22;5069791;28;19959;-58
2022/12/14 03:46:26;;;;;;;;;;;;;;;-1.25;100.00;96685.88;5069705;28;19928;-59
2022/12/14 03:48:55;;;;;;;;;;;;;;;-1.69;100.00;96691.34;5069452;28;20008;-58
2022/12/14 03:51:24;;;;;;;;;;;;;;;-1.11;100.00;96678.66;5069564;28;19925;-58
2022/12/14 03:53:54;;;;;;;;;;;;;;;-0.88;100.00;96665.69;5067933;28;19929;-59
2022/12/14 03:56:24;;;;;;;;;;;;;;;-1.06;100.00;96662.28;5069371;28;19932;-58
2022/12/14 03:58:54;;;;;;;;;;;;;;;-0.94;100.00;96660.50;5069499;28;20017;-59
2022/12/14 04:01:23;;;;;;;;;;;;;;;-0.72;100.00;96674.75;5069465;28;19966;-59
2022/12/14 04:03:53;;;;;;;;;;;;;;;-0.73;100.00;96686.25;5069512;28;20420;-58
2022/12/14 04:06:23;;;;;;;;;;;;;;;-1.04;100.00;96679.38;5069313;28;19996;-59
2022/12/14 04:08:56;;;;;;;;;;;;;;;-1.35;100.00;96677.72;5069452;28;19936;-59
2022/12/14 04:19:44;;;;;;;;;;;;;;;-1.04;100.00;96684.63;5061624;28;19989;-59
2022/12/14 04:22:12;;;;;;;;;;;;;;;-0.63;100.00;96683.91;5067870;28;19925;-59
2022/12/14 04:27:32;;;;;;;;;;;;;;;-0.61;100.00;96684.47;5068997;28;19931;-59
2022/12/14 04:29:59;;;;;;;;;;;;;;;-0.28;100.00;96669.06;5069227;28;19924;-59
2022/12/14 04:32:29;;;;;;;;;;;;;;;-0.20;100.00;96663.50;5068886;28;19925;-59
2022/12/14 04:34:57;;;;;;;;;;;;;;;-0.15;100.00;96679.38;5069011;28;20065;-59
2022/12/14 04:37:27;;;;;;;;;;;;;;;-0.02;100.00;96678.38;5069069;28;19982;-57
2022/12/14 04:39:56;;;;;;;;;;;;;;;-0.05;100.00;96676.19;5069057;28;19980;-58
2022/12/14 04:42:25;;;;;;;;;;;;;;;-0.35;100.00;96673.63;5069153;28;19925;-59
2022/12/14 04:44:54;;;;;;;;;;;;;;;-0.28;100.00;96668.28;5068749;28;19935;-59
2022/12/14 04:47:23;;;;;;;;;;;;;;;-0.15;100.00;96662.81;5068992;28;19952;-59
2022/12/14 04:49:52;;;;;;;;;;;;;;;-0.17;100.00;96649.94;5068930;28;19956;-59
2022/12/14 04:52:21;;;;;;;;;;;;;;;-0.03;100.00;96640.81;5067209;28;19996;-58
2022/12/14 04:54:49;;;;;;;;;;;;;;;0.02;100.00;96640.16;5068840;28;20784;-59
2022/12/14 04:57:20;;;;;;;;;;;;;;;0.12;100.00;96647.47;5069026;28;19960;-58
2022/12/14 04:59:47;;;;;;;;;;;;;;;-0.57;100.00;96654.97;5069459;28;19951;-60
2022/12/14 05:02:19;;;;;;;;;;;;;;;-0.56;100.00;96653.16;5069113;28;19924;-59
2022/12/14 05:04:54;;;;;;;;;;;;;;;-0.32;100.00;96646.94;5068595;28;19921;-59
2022/12/14 05:07:28;;;;;;;;;;;;;;;-0.26;100.00;96635.56;5068365;28;19941;-59
2022/12/14 05:09:56;;;;;;;;;;;;;;;-0.63;100.00;96628.84;5068674;28;19993;-59
2022/12/14 05:12:28;;;;;;;;;;;;;;;-0.55;100.00;96625.91;5068596;28;19967;-59
2022/12/14 05:14:59;;;;;;;;;;;;;;;-0.49;100.00;96626.81;5068305;28;20111;-58
2022/12/14 05:17:26;;;;;;;;;;;;;;;-0.57;100.00;96641.06;5068501;28;19989;-58
2022/12/14 05:19:53;;;;;;;;;;;;;;;-0.38;100.00;96645.22;5068541;28;19988;-59
2022/12/14 05:22:19;;;;;;;;;;;;;;;-0.64;100.00;96637.72;5066888;28;19935;-58
2022/12/14 05:24:46;;;;;;;;;;;;;;;-0.45;100.00;96636.66;5068597;28;19925;-60
2022/12/14 05:27:12;;;;;;;;;;;;;;;-0.50;100.00;96626.03;5068301;28;19925;-58
2022/12/14 05:29:40;;;;;;;;;;;;;;;-0.64;100.00;96612.31;5060085;28;19988;-61
2022/12/14 05:32:06;;;;;;;;;;;;;;;-0.57;100.00;96609.59;5068603;28;19924;-59
2022/12/14 05:34:33;;;;;;;;;;;;;;;-0.61;100.00;96606.63;5072066;28;20064;-58
2022/12/14 05:36:59;;;;;;;;;;;;;;;-0.72;100.00;96598.75;5071807;28;19936;-58
2022/12/14 05:39:25;;;;;;;;;;;;;;;-0.97;100.00;96605.94;5072086;28;19963;-59
2022/12/14 05:41:52;;;;;;;;;;;;;;;-1.11;100.00;96600.88;5071993;28;19980;-59
2022/12/14 05:44:18;;;;;;;;;;;;;;;-1.40;100.00;96591.16;5071841;28;20293;-58
2022/12/14 05:46:46;;;;;;;;;;;;;;;-1.52;100.00;96581.66;5054175;28;19963;-59
2022/12/14 05:49:12;;;;;;;;;;;;;;;-1.67;100.00;96592.47;5071798;28;19928;-59
2022/12/14 05:51:39;;;;;;;;;;;;;;;-1.28;100.00;96594.66;5063730;28;19988;-59
2022/12/14 05:54:05;;;;;;;;;;;;;;;-1.08;100.00;96583.13;5070248;28;19941;-58
2022/12/14 05:56:32;;;;;;;;;;;;;;;-1.35;100.00;96583.44;5071769;28;20015;-58
2022/12/14 05:58:58;;;;;;;;;;;;;;;-1.31;100.00;96583.81;5071709;28;19984;-59
2022/12/14 06:01:25;;;;;;;;;;;;;;;-1.64;100.00;96584.19;5071806;28;20009;-59
2022/12/14 06:03:52;;;;;;;;;;;;;;;-1.59;100.00;96579.09;5071936;28;20411;-65
2022/12/14 06:06:20;;;;;;;;;;;;;;;-1.75;100.00;96579.69;5072064;28;19935;-58
2022/12/14 06:08:46;;;;;;;;;;;;;;;-1.92;100.00;96576.81;5071731;28;19925;-58
2022/12/14 06:11:13;;;;;;;;;;;;;;;-2.08;100.00;96579.22;5071735;28;19993;-59
2022/12/14 06:13:40;;;;;;;;;;;;;;;-2.22;100.00;96575.91;5063482;28;20013;-58
2022/12/14 06:16:07;;;;;;;;;;;;;;;-2.29;100.00;96575.97;5071543;28;19956;-59
2022/12/14 06:18:34;;;;;;;;;;;;;;;-1.70;100.00;96574.56;5071352;28;19929;-60
2022/12/14 06:21:02;;;;;;;;;;;;;;;-1.77;100.00;96569.44;5071451;28;19925;-58
2022/12/14 06:23:28;;;;;;;;;;;;;;;-1.63;100.00;96578.72;5072986;28;19940;-59
2022/12/14 06:25:55;;;;;;;;;;;;;;;-1.71;100.00;96573.00;5072025;28;19935;-59
2022/12/14 06:28:21;;;;;;;;;;;;;;;-1.79;100.00;96554.94;5054161;28;20911;-58
2022/12/14 06:30:48;;;;;;;;;;;;;;;-2.00;100.00;96550.94;5072274;28;19920;-58
2022/12/14 06:33:14;;;;;;;;;;;;;;;-2.02;100.00;96544.34;5072459;28;19959;-58
2022/12/14 06:35:42;;;;;;;;;;;;;;;-2.13;100.00;96558.13;5072714;28;19980;-58
2022/12/14 06:38:10;;;;;;;;;;;;;;;-2.00;100.00;96544.91;5072334;28;20004;-59
2022/12/14 06:40:36;;;;;;;;;;;;;;;-2.01;100.00;96546.72;5071783;28;19925;-59
2022/12/14 06:43:02;;;;;;;;;;;;;;;-1.89;100.00;96533.75;5071599;28;19959;-58
2022/12/14 06:45:29;;;;;;;;;;;;;;;-2.15;100.00;96534.00;5071603;28;19964;-59
2022/12/14 06:47:57;;;;;;;;;;;;;;;-1.94;100.00;96525.75;5071309;28;19924;-58
2022/12/14 06:50:23;;;;;;;;;;;;;;;-1.92;100.00;96536.81;5071534;28;19921;-57
2022/12/14 06:52:50;;;;;;;;;;;;;;;-1.96;100.00;96533.81;5073216;28;19993;-60
2022/12/14 06:55:17;;;;;;;;;;;;;;;-2.10;100.00;96540.19;5071915;28;19952;-59
2022/12/14 06:57:44;;;;;;;;;;;;;;;-2.26;100.00;96527.69;5071788;28;19960;-59
2022/12/14 07:00:11;;;;;;;;;;;;;;;-2.26;100.00;96533.69;5071736;28;19925;-60
2022/12/14 07:02:37;;;;;;;;;;;;;;;-1.99;100.00;96538.69;5071127;28;19997;-59
2022/12/14 07:05:04;;;;;;;;;;;;;;;-1.89;100.00;96538.97;5071375;28;19925;-59
2022/12/14 07:07:31;;;;;;;;;;;;;;;-1.83;100.00;96532.88;5071450;28;19964;-58
2022/12/14 07:09:57;;;;;;;;;;;;;;;-2.02;100.00;96533.88;5071329;28;19921;-59
2022/12/14 07:12:26;;;;;;;;;;;;;;;-1.99;100.00;96528.22;5071220;28;19995;-59
2022/12/14 07:14:53;;;;;;;;;;;;;;;-1.63;100.00;96538.66;5070626;28;19935;-59
2022/12/14 07:17:19;;;;;;;;;;;;;;;-1.81;100.00;96525.59;5070625;28;20509;-61
2022/12/14 07:19:46;;;;;;;;;;;;;;;-1.85;100.00;96529.66;5070601;28;19996;-59
2022/12/14 07:22:12;;;;;;;;;;;;;;;-1.48;100.00;96515.53;5071728;28;19936;-59
2022/12/14 07:24:39;;;;;;;;;;;;;;;-1.85;100.00;96522.63;5062020;28;20000;-61
2022/12/14 07:27:05;;;;;;;;;;;;;;;-1.80;100.00;96521.97;5070308;28;20000;-59
2022/12/14 07:29:33;;;;;;;;;;;;;;;-1.74;100.00;96511.44;5070359;28;19960;-58
2022/12/14 07:31:59;;;;;;;;;;;;;;;-2.00;100.00;96510.91;5070172;28;19925;-58
2022/12/14 07:34:26;;;;;;;;;;;;;;;-2.09;100.00;96507.00;5070193;28;19948;-59
2022/12/14 07:36:53;;;;;;;;;;;;;;;-2.22;100.00;96507.94;5070087;28;20001;-62
2022/12/14 07:39:20;;;;;;;;;;;;;;;-2.25;100.00;96505.75;5070119;28;19967;-59
2022/12/14 07:41:47;;;;;;;;;;;;;;;-2.28;100.00;96514.81;5070195;28;20012;-59
2022/12/14 07:44:14;;;;;;;;;;;;;;;-2.25;100.00;96510.97;5069946;28;19925;-58
2022/12/14 07:46:42;;;;;;;;;;;;;;;-2.21;100.00;96514.75;5069744;28;19925;-59
2022/12/14 07:49:08;;;;;;;;;;;;;;;-2.27;100.00;96513.00;5069680;28;20091;-60
2022/12/14 07:51:35;;;;;;;;;;;;;;;-2.29;100.00;96513.22;5069791;28;19984;-58
2022/12/14 07:54:03;;;;;;;;;;;;;;;-2.32;100.00;96513.66;5071056;28;19925;-58
2022/12/14 07:56:30;;;;;;;;;;;;;;;-2.41;100.00;96503.69;5068680;28;20015;-59
2022/12/14 07:58:57;;;;;;;;;;;;;;;-2.63;100.00;96512.94;5069145;28;19925;-59
2022/12/14 08:01:25;;;;;;;;;;;;;;;-2.62;100.00;96522.38;5069171;28;20019;-58
2022/12/14 08:03:54;;;;;;;;;;;;;;;-2.47;100.00;96521.03;5051388;28;19984;-59
2022/12/14 08:06:22;;;;;;;;;;;;;;;-2.34;100.00;96522.72;5069122;28;19980;-59
2022/12/14 08:08:48;;;;;;;;;;;;;;;-2.25;100.00;96518.81;5068966;28;20019;-58
2022/12/14 08:11:15;;;;;;;;;;;;;;;-2.46;100.00;96517.41;5069121;28;19985;-59
2022/12/14 08:13:42;;;;;;;;;;;;;;;-2.55;100.00;96505.63;5068920;28;20091;-60
2022/12/14 08:16:09;;;;;;;;;;;;;;;-2.65;100.00;96486.22;5068975;28;19932;-58
2022/12/14 08:18:36;;;;;;;;;;;;;;;-2.64;100.00;96472.97;5068790;28;19932;-59
2022/12/14 08:21:04;;;;;;;;;;;;;;;-2.62;100.00;96475.34;5068736;28;19975;-59
2022/12/14 08:23:31;;;;;;;;;;;;;;;-2.55;100.00;96476.88;5070181;28;19925;-59
2022/12/14 08:26:00;;;;;;;;;;;;;;;-2.34;100.00;96484.31;5068049;28;22431;-59
2022/12/14 08:28:27;;;;;;;;;;;;;;;-2.10;100.00;96489.72;5068512;28;20011;-59
2022/12/14 08:30:53;;;;;;;;;;;;;;;-2.29;100.00;96494.13;5068741;28;19980;-60
2022/12/14 08:33:20;;;;;;;;;;;;;;;-2.24;100.00;96496.91;5068790;28;19944;-58
2022/12/14 08:35:47;;;;;;;;;;;;;;;-2.31;100.00;96509.22;5068801;28;20007;-60
2022/12/14 08:38:15;;;;;;;;;;;;;;;-2.49;100.00;96512.63;5068675;28;19929;-60
2022/12/14 08:40:41;;;;;;;;;;;;;;;-2.54;100.00;96503.81;5060916;28;20259;-59
2022/12/14 08:43:09;;;;;;;;;;;;;;;-2.40;100.00;96510.53;5068727;28;19991;-58
2022/12/14 08:45:35;;;;;;;;;;;;;;;-2.30;100.00;96501.19;5068860;28;19943;-58
2022/12/14 08:48:01;;;;;;;;;;;;;;;-2.44;100.00;96497.06;5068610;28;20445;-58
2022/12/14 08:50:29;;;;;;;;;;;;;;;-2.43;100.00;96497.88;5068641;28;19982;-59
2022/12/14 08:52:55;;;;;;;;;;;;;;;-2.39;100.00;96491.22;5070406;28;19925;-59
2022/12/14 08:55:23;;;;;;;;;;;;;;;-2.65;100.00;96489.63;5069136;28;19936;-60
2022/12/14 08:57:50;;;;;;;;;;;;;;;-2.22;100.00;96482.59;5068827;28;20012;-58
2022/12/14 09:00:16;;;;;;;;;;;;;;;-2.32;100.00;96487.50;5068417;28;19938;-58
2022/12/14 09:02:43;;;;;;;;;;;;;;;-2.44;100.00;96491.84;5068390;28;20038;-59
2022/12/14 09:05:09;;;;;;;;;;;;;;;-2.53;100.00;96469.63;5068439;28;19928;-58
2022/12/14 09:07:36;;;;;;;;;;;;;;;-2.54;100.00;96468.03;5071292;28;19920;-58
2022/12/14 09:10:02;;;;;;;;;;;;;;;-2.41;100.00;96474.94;5072232;28;19952;-58
2022/12/14 09:12:30;;;;;;;;;;;;;;;-2.47;100.00;96484.44;5072181;28;19963;-60
2022/12/14 09:14:56;;;;;;;;;;;;;;;-2.45;100.00;96481.63;5072478;28;19988;-59
2022/12/14 09:17:22;;;;;;;;;;;;;;;-2.54;100.00;96470.66;5072454;28;19935;-59
2022/12/14 09:19:49;;;;;;;;;;;;;;;-2.56;100.00;96461.41;5072218;28;20000;-58
2022/12/14 09:22:15;;;;;;;;;;;;;;;-2.43;100.00;96449.03;5073751;28;19968;-59
2022/12/14 09:24:41;;;;;;;;;;;;;;;-2.46;100.00;96444.22;5072499;28;19959;-60
2022/12/14 09:27:08;;;;;;;;;;;;;;;-2.35;100.00;96453.94;5072040;28;19924;-58
2022/12/14 09:29:36;;;;;;;;;;;;;;;-2.31;100.00;96454.31;5072258;28;19933;-59
2022/12/14 09:32:02;;;;;;;;;;;;;;;-2.30;100.00;96437.63;5072114;28;19939;-59
2022/12/14 09:34:28;;;;;;;;;;;;;;;-2.36;100.00;96426.25;5072081;28;19975;-60
2022/12/14 09:36:55;;;;;;;;;;;;;;;-2.26;100.00;96410.81;5072043;28;19929;-59
2022/12/14 09:39:21;;;;;;;;;;;;;;;-2.24;100.00;96411.41;5072071;28;19980;-59
2022/12/14 09:42:01;;;;;;;;;;;;;;;-2.08;100.00;96401.38;5054363;28;20043;-60
2022/12/14 09:44:38;;;;;;;;;;;;;;;-2.09;100.00;96389.31;5072033;28;19925;-60
2022/12/14 09:47:10;;;;;;;;;;;;;;;-2.07;100.00;96385.44;5071861;28;19992;-59
2022/12/14 09:49:40;;;;;;;;;;;;;;;-1.97;100.00;96371.84;5071735;28;19932;-58
2022/12/14 09:52:10;;;;;;;;;;;;;;;-2.10;100.00;96367.59;5072549;28;20005;-59
2022/12/14 09:54:38;;;;;;;;;;;;;;;-2.13;100.00;96367.22;5072088;28;19929;-60
2022/12/14 09:57:07;;;;;;;;;;;;;;;-2.06;100.00;96353.06;5071856;28;19991;-60
2022/12/14 09:59:34;;;;;;;;;;;;;;;-2.00;100.00;96374.91;5071887;28;20019;-58
2022/12/14 10:02:04;;;;;;;;;;;;;;;-2.03;100.00;96367.50;5071700;28;19932;-60
2022/12/14 10:04:38;;;;;;;;;;;;;;;-2.15;100.00;96369.28;5071772;28;19936;-60
2022/12/14 10:07:09;;;;;;;;;;;;;;;-2.02;100.00;96366.50;5071858;28;19967;-58
2022/12/14 10:09:38;;;;;;;;;;;;;;;-2.04;100.00;96355.47;5071351;28;20005;-59
2022/12/14 10:12:14;;;;;;;;;;;;;;;-1.89;100.00;96348.78;5071438;28;19984;-58
2022/12/14 10:14:49;;;;;;;;;;;;;;;-1.87;100.00;96348.56;5063548;28;19948;-59
2022/12/14 10:17:20;;;;;;;;;;;;;;;-1.87;100.00;96340.72;5071254;28;19925;-59
2022/12/14 10:19:52;;;;;;;;;;;;;;;-1.89;100.00;96338.31;5070567;28;19925;-59
2022/12/14 10:22:20;;;;;;;;;;;;;;;-1.90;100.00;96330.72;5072673;28;20019;-59
2022/12/14 10:24:48;;;;;;;;;;;;;;;-1.93;100.00;96339.81;5071199;28;19925;-58
2022/12/14 10:27:17;;;;;;;;;;;;;;;-1.92;100.00;96330.16;5071143;28;19995;-59
2022/12/14 10:29:46;;;;;;;;;;;;;;;-1.85;100.00;96328.22;5071027;28;19925;-59
2022/12/14 10:32:19;;;;;;;;;;;;;;;-1.89;100.00;96334.94;5071052;28;20036;-61
2022/12/14 10:34:45;;;;;;;;;;;;;;;-1.63;100.00;96329.28;5063707;28;19984;-60
2022/12/14 10:37:24;;;;;;;;;;;;;;;-1.48;100.00;96332.28;5071130;28;19940;-58
2022/12/14 10:39:55;;;;;;;;;;;;;;;-1.59;100.00;96319.19;5064269;28;19921;-58
2022/12/14 10:42:28;;;;;;;;;;;;;;;-1.58;100.00;96318.97;5070788;28;20000;-58
2022/12/14 10:45:00;;;;;;;;;;;;;;;-1.63;100.00;96314.41;5070938;28;19961;-58
2022/12/14 10:47:29;;;;;;;;;;;;;;;-1.85;100.00;96322.97;5071021;28;19932;-61
2022/12/14 10:49:59;;;;;;;;;;;;;;;-1.77;100.00;96323.47;5070780;28;19936;-59
2022/12/14 10:52:30;;;;;;;;;;;;;;;-1.90;100.00;96299.31;5072599;28;20000;-59
2022/12/14 10:54:58;;;;;;;;;;;;;;;-1.99;100.00;96292.81;5071293;28;19996;-59
2022/12/14 10:57:26;;;;;;;;;;;;;;;-2.01;100.00;96300.09;5071256;28;19996;-59
2022/12/14 10:59:52;;;;;;;;;;;;;;;-2.04;100.00;96311.00;5070924;28;19947;-59
2022/12/14 11:02:20;;;;;;;;;;;;;;;-1.99;100.00;96288.38;5070777;28;19968;-59
2022/12/14 11:04:49;;;;;;;;;;;;;;;-2.02;100.00;96285.41;5070783;28;19987;-59
2022/12/14 11:07:17;;;;;;;;;;;;;;;-2.07;100.00;96283.44;5070307;28;19980;-59
2022/12/14 11:09:45;;;;;;;;;;;;;;;-2.08;100.00;96279.25;5070565;28;19948;-59
2022/12/14 11:12:17;;;;;;;;;;;;;;;-2.15;100.00;96278.56;5070439;28;19952;-59
2022/12/14 11:14:51;;;;;;;;;;;;;;;-2.07;100.00;96274.84;5062623;28;19988;-58
2022/12/14 11:17:29;;;;;;;;;;;;;;;-2.15;100.00;96272.53;5070407;28;19936;-59
2022/12/14 11:20:03;;;;;;;;;;;;;;;-2.20;100.00;96276.59;5070525;28;20570;-58
2022/12/14 11:22:29;;;;;;;;;;;;;;;-2.12;100.00;96277.31;5071528;28;19975;-59
2022/12/14 11:24:57;;;;;;;;;;;;;;;-2.11;100.00;96271.06;5070195;28;19991;-58
2022/12/14 11:27:23;;;;;;;;;;;;;;;-2.02;100.00;96274.94;5070181;28;20330;-58
2022/12/14 11:29:50;;;;;;;;;;;;;;;-1.93;100.00;96273.59;5069143;28;19932;-58
2022/12/14 11:32:18;;;;;;;;;;;;;;;-1.95;100.00;96254.72;5069989;28;19936;-60
2022/12/14 11:34:52;;;;;;;;;;;;;;;-2.00;100.00;96254.59;5070231;28;20421;-59
2022/12/14 11:37:21;;;;;;;;;;;;;;;-1.96;100.00;96250.50;5070056;28;19952;-59
2022/12/14 11:39:49;;;;;;;;;;;;;;;-1.88;100.00;96243.13;5070138;28;19931;-58
2022/12/14 11:42:18;;;;;;;;;;;;;;;-1.83;100.00;96252.94;5069902;28;19988;-58
2022/12/14 11:44:45;;;;;;;;;;;;;;;-1.87;100.00;96262.25;5069912;28;19924;-61
2022/12/14 11:47:12;;;;;;;;;;;;;;;-1.97;100.00;96252.34;5069869;28;19936;-59
2022/12/14 11:49:43;;;;;;;;;;;;;;;-1.99;100.00;96258.81;5069615;28;19925;-58
2022/12/14 11:52:11;;;;;;;;;;;;;;;-2.04;100.00;96261.31;5070180;28;19929;-59
2022/12/14 11:54:38;;;;;;;;;;;;;;;-2.01;100.00;96268.72;5069342;28;19968;-59
2022/12/14 11:57:06;;;;;;;;;;;;;;;-2.17;100.00;96258.88;5068632;28;19971;-58
2022/12/14 11:59:38;;;;;;;;;;;;;;;-2.20;100.00;96255.66;5068940;28;19932;-60
2022/12/14 12:02:15;;;;;;;;;;;;;;;-1.94;100.00;96262.34;5069553;28;20008;-59
2022/12/14 12:04:44;;;;;;;;;;;;;;;-2.09;100.00;96272.44;5061531;28;19924;-58
2022/12/14 12:07:20;;;;;;;;;;;;;;;-2.11;100.00;96261.41;5069347;28;19984;-60
2022/12/14 12:09:47;;;;;;;;;;;;;;;-2.04;100.00;96263.94;5062065;28;20016;-60
2022/12/14 12:12:17;;;;;;;;;;;;;;;-1.97;100.00;96260.19;5069376;28;19980;-59
2022/12/14 12:14:46;;;;;;;;;;;;;;;-1.70;100.00;96247.47;5061602;28;19949;-59
2022/12/14 12:17:19;;;;;;;;;;;;;;;-1.84;100.00;96253.94;5069407;28;19986;-57
2022/12/14 12:19:50;;;;;;;;;;;;;;;-1.92;100.00;96235.97;5061614;28;20058;-58
2022/12/14 12:22:17;;;;;;;;;;;;;;;-1.65;100.00;96248.41;5070672;28;19931;-59
2022/12/14 12:24:51;;;;;;;;;;;;;;;-1.70;100.00;96244.84;5069362;28;19988;-59
2022/12/14 12:27:18;;;;;;;;;;;;;;;-1.80;100.00;96239.41;5068972;28;19928;-58
2022/12/14 12:29:48;;;;;;;;;;;;;;;-1.65;100.00;96231.91;5069055;28;19928;-59
2022/12/14 12:32:18;;;;;;;;;;;;;;;-1.70;100.00;96229.16;5069257;28;19936;-60
2022/12/14 12:34:47;;;;;;;;;;;;;;;-1.72;100.00;96220.75;5061967;28;19956;-58
2022/12/14 12:37:15;;;;;;;;;;;;;;;-1.92;100.00;96221.06;5069415;28;20035;-60
2022/12/14 12:39:43;;;;;;;;;;;;;;;-2.03;100.00;96206.16;5061383;28;19921;-59
2022/12/14 12:42:17;;;;;;;;;;;;;;;-2.13;100.00;96198.06;5071023;28;19984;-59
2022/12/14 12:44:48;;;;;;;;;;;;;;;-2.22;100.00;96199.41;5065659;28;20028;-59
2022/12/14 12:47:20;;;;;;;;;;;;;;;-2.15;100.00;96192.25;5073150;28;20000;-59
2022/12/14 12:49:47;;;;;;;;;;;;;;;-2.14;100.00;96195.69;5073210;28;19992;-60
2022/12/14 12:52:19;;;;;;;;;;;;;;;-2.15;100.00;96188.84;5074577;28;19989;-58
2022/12/14 12:54:51;;;;;;;;;;;;;;;-2.20;100.00;96192.91;5065868;28;19929;-59